Weather forecast for Liberland

Liberland, 87 m
N45.768, E18.872


Sounding

Red line — air temperature ˚C.
Blue line — thermal bubble temperature ˚C.
Green line — dew point temperature ˚C.
Wind speed is in meters per second.

Table forecast

GFS 0.25˚ model

temp. wind gust humid. clouds prec. press. hpbl
Sun21 00:00 11 199.0 ssw 2 2 50 0 0.0 1026 22
03:00 10 244.0 wsw 2 2 55 0 0.0 1026 22
06:00 9 271.0 w 2 3 55 0 0.0 1024 22
09:00 12 262.0 w 2 3 58 32 0.0 1024 142
12:00 19 255.0 wsw 3 4 41 0 0.0 1023 720
15:00 21 248.0 wsw 3 3 32 0 0.0 1021 1966
18:00 20 241.0 wsw 2 2 33 0 0.0 1019 2064
21:00 14 229.0 sw 2 2 46 0 0.0 1018 23
 
Mon22 00:00 12 221.0 sw 2 3 48 0 0.0 1019 23
03:00 10 218.0 sw 2 3 56 0 0.0 1018 22
06:00 9 203.0 ssw 1 2 63 0 0.0 1016 22
09:00 12 195.0 ssw 2 3 64 0 0.0 1016 146
12:00 18 175.0 s 3 3 44 0 0.0 1015 664
15:00 21 154.0 sse 3 3 35 0 0.0 1013 1541
18:00 21 160.0 sse 3 4 36 10 0.0 1011 1799
21:00 15 105.0 ese 3 4 52 12 0.0 1011 60
 
Tue23 00:00 13 128.0 se 7 16 69 16 0.0 1012 667
03:00 12 130.0 se 7 14 69 58 0.0 1012 468
06:00 12 140.0 se 7 13 79 95 0.3 1012 553
09:00 10 129.0 se 9 16 87 98 2.4 1012 589
12:00 15 135.0 se 10 14 66 69 0.0 1012 822
15:00 19 128.0 se 10 13 60 36 0.0 1011 1364
18:00 18 132.0 se 10 15 63 65 0.0 1010 869
21:00 14 142.0 se 10 18 71 55 0.0 1010 534
 
Wed24 00:00 14 148.0 sse 8 16 74 100 0.1 1013 460
03:00 13 149.0 sse 7 13 78 69 0.1 1013 348
06:00 12 150.0 sse 6 12 83 21 0.0 1014 275
09:00 15 153.0 sse 6 11 75 11 0.0 1016 319
12:00 21 164.0 sse 6 8 55 0 0.0 1017 1060
15:00 23 175.0 s 6 8 53 4 1.1 1016 1722
18:00 23 157.0 sse 2 6 60 60 0.9 1015 375
21:00 18 134.0 se 5 14 76 66 2.3 1016 401
 
Thu25 00:00 15 149.0 sse 4 9 84 4 0.0 1017 192
03:00 13 162.0 sse 3 6 88 6 0.0 1017 107
06:00 12 154.0 sse 4 7 89 2 0.0 1018 134
09:00 15 156.0 sse 4 7 78 4 0.0 1018 277
12:00 22 152.0 sse 4 6 58 44 0.0 1017 576
15:00 26 148.0 sse 5 7 47 40 0.0 1016 1021
18:00 26 140.0 se 5 6 50 19 0.0 1014 1053
21:00 20 126.0 se 4 11 75 22 0.0 1014 246
 

0.014 s